Fulton Acres, California
Current Conditions -  °F | °C
As of 6:15 PM on Saturday 25 Oct 2014 (Local Time) from KTRK Reporting Station
Clear Clear  
Wind Chill: 33°   Ceiling: Unl
Heat Index: 39°   Visibility: 10mi
Dew Point: 32°   Wind: 9mph
Humidity: 75%   Direction: 160°SSE
Pressure: 30.09"   Gusts: NA
Location:  39.2392°N, 120.102°W
Report Text: KTRK 260115Z AUTO 16008KT 150V210 10SM CLR 04/00 A3009 RMK AO2
Loading
Personal Weather Stations






























Interactive Weather Map
Tropical Storm Tracking
New forecast layout! Learn more

10-Day Weather Forecast

Advertisements
Track Severe Weather on mobile